createdAt,value
2023-02-12T07:55:55.347Z,9
2023-02-12T08:06:00.490Z,10
2023-02-12T08:16:06.725Z,13
2023-02-12T08:26:12.109Z,9
2023-02-12T08:36:16.913Z,10
2023-02-12T08:46:25.286Z,13
2023-02-12T08:56:28.210Z,7
2023-02-12T09:06:34.249Z,8
2023-02-12T09:16:39.935Z,9
2023-02-12T09:26:44.572Z,10
2023-02-12T09:36:49.621Z,11
2023-02-12T09:46:55.975Z,18
2023-02-12T09:57:03.278Z,16
2023-02-12T10:07:08.792Z,17
2023-02-12T10:17:17.920Z,18
2023-02-12T10:27:20.752Z,15
2023-02-12T10:37:25.933Z,16
2023-02-12T10:47:32.611Z,17
2023-02-12T10:57:37.945Z,14
2023-02-12T11:07:45.202Z,12
2023-02-12T11:17:50.114Z,15
2023-02-12T11:27:55.499Z,14
2023-02-12T11:38:01.080Z,13
2023-02-12T11:48:09.735Z,13
2023-02-12T11:58:16.838Z,13
2023-02-12T12:08:23.041Z,12
2023-02-12T12:18:31.410Z,14
2023-02-12T12:28:38.365Z,14
2023-02-12T12:38:41.726Z,13
2023-02-12T12:48:47.468Z,12
2023-02-12T12:58:52.943Z,15
2023-02-12T13:08:58.450Z,11
2023-02-12T13:19:02.645Z,15
2023-02-12T13:29:08.241Z,13
2023-02-12T13:39:13.316Z,10
2023-02-12T13:49:19.878Z,14
2023-02-12T13:59:24.576Z,8
2023-02-12T14:09:28.554Z,10
2023-02-12T14:19:34.776Z,11
2023-02-12T14:29:41.693Z,12
2023-02-12T14:39:48.547Z,8
2023-02-12T14:49:54.338Z,8
2023-02-12T15:00:01.841Z,11
2023-02-12T15:10:08.331Z,9
2023-02-12T15:20:12.811Z,12
2023-02-12T15:30:25.832Z,14
2023-02-12T15:40:25.628Z,12
2023-02-12T15:50:32.054Z,13
2023-02-12T16:00:38.501Z,24
2023-02-12T16:10:44.175Z,15
2023-02-12T16:20:48.984Z,14
2023-02-12T16:30:54.967Z,19
2023-02-12T16:41:01.272Z,17
2023-02-12T16:51:06.518Z,17
2023-02-12T17:01:13.306Z,16
2023-02-12T17:11:19.590Z,15
2023-02-12T17:21:24.288Z,18
2023-02-12T17:31:31.482Z,18
2023-02-12T17:41:38.074Z,20
2023-02-12T17:51:42.947Z,20
2023-02-12T18:01:48.748Z,23
2023-02-12T18:11:53.341Z,50
2023-02-12T18:21:58.701Z,34
2023-02-12T18:32:05.395Z,33
2023-02-12T18:42:07.966Z,36
2023-02-12T18:52:13.119Z,42
2023-02-12T19:02:20.225Z,31
2023-02-12T19:12:25.459Z,15
2023-02-12T19:22:29.341Z,20
2023-02-12T19:32:35.133Z,22
2023-02-12T19:42:41.551Z,19
2023-02-12T19:52:46.340Z,20
2023-02-12T20:02:50.196Z,15
2023-02-12T20:12:54.480Z,18
2023-02-12T20:23:01.373Z,22
2023-02-12T20:33:05.179Z,21
2023-02-12T20:43:09.043Z,20
2023-02-12T20:53:14.143Z,23
2023-02-12T21:03:20.566Z,21
2023-02-12T21:13:27.917Z,25
2023-02-12T21:23:33.984Z,37
2023-02-12T21:33:39.532Z,28
2023-02-12T21:43:44.115Z,26
2023-02-12T21:53:50.566Z,22
2023-02-12T22:03:53.976Z,24
2023-02-12T22:13:59.452Z,27
2023-02-12T22:24:05.352Z,33
2023-02-12T22:34:12.198Z,31
2023-02-12T22:44:19.431Z,34
2023-02-12T22:54:23.453Z,24
2023-02-12T23:04:30.298Z,35
2023-02-12T23:14:34.517Z,38
2023-02-12T23:24:39.911Z,36
2023-02-12T23:34:47.536Z,36
2023-02-12T23:44:56.740Z,28
2023-02-12T23:54:58.977Z,30
